createdAt,value
2023-05-14T00:00:29.593Z,9.70
2023-05-14T00:02:56.534Z,9.60
2023-05-14T00:05:23.402Z,10.35
2023-05-14T00:07:49.953Z,9.38
2023-05-14T00:10:17.721Z,10.75
2023-05-14T00:12:44.191Z,9.40
2023-05-14T00:15:11.038Z,9.48
2023-05-14T00:17:37.934Z,8.95
2023-05-14T00:20:07.280Z,9.32
2023-05-14T00:22:34.619Z,9.48
2023-05-14T00:25:01.124Z,8.35
2023-05-14T00:27:27.907Z,8.85
2023-05-14T00:29:54.443Z,9.00
2023-05-14T00:32:21.179Z,9.05
2023-05-14T00:34:48.074Z,9.27
2023-05-14T00:37:14.807Z,9.40
2023-05-14T00:39:41.286Z,9.55
2023-05-14T00:42:07.773Z,10.07
2023-05-14T00:44:34.348Z,8.40
2023-05-14T00:47:00.875Z,9.00
2023-05-14T00:49:29.378Z,8.85
2023-05-14T00:51:58.930Z,9.05
2023-05-14T00:54:25.561Z,8.40
2023-05-14T00:56:52.834Z,8.63
2023-05-14T00:59:21.678Z,9.05
2023-05-14T01:01:48.681Z,8.25
2023-05-14T01:04:16.172Z,8.90
2023-05-14T01:06:59.639Z,8.98
2023-05-14T01:10:01.586Z,8.85
2023-05-14T01:12:58.242Z,8.10
2023-05-14T01:15:28.736Z,9.00
2023-05-14T01:18:00.125Z,9.50
2023-05-14T01:20:29.640Z,8.25
2023-05-14T01:22:56.138Z,8.75
2023-05-14T01:25:22.969Z,8.48
2023-05-14T01:27:53.056Z,8.45
2023-05-14T01:30:26.656Z,8.00
2023-05-14T01:32:56.232Z,8.07
2023-05-14T01:35:27.000Z,7.53
2023-05-14T01:38:01.733Z,6.85
2023-05-14T01:40:29.089Z,8.65
2023-05-14T01:42:56.646Z,7.32
2023-05-14T01:45:28.179Z,6.88
2023-05-14T01:47:55.902Z,7.55
2023-05-14T01:50:22.891Z,8.38
2023-05-14T01:52:49.615Z,7.20
2023-05-14T01:55:16.126Z,8.05
2023-05-14T01:57:42.905Z,8.23
2023-05-14T02:00:09.594Z,8.48
2023-05-14T02:02:37.438Z,8.50
2023-05-14T02:05:06.790Z,8.23
2023-05-14T02:07:35.219Z,7.78
2023-05-14T02:10:02.969Z,7.75
2023-05-14T02:12:29.670Z,8.25
2023-05-14T02:14:56.202Z,8.02
2023-05-14T02:17:22.886Z,7.20
2023-05-14T02:19:49.822Z,8.52
2023-05-14T02:22:16.381Z,8.27
2023-05-14T02:24:43.180Z,8.48
2023-05-14T02:27:10.198Z,6.82
2023-05-14T02:29:36.745Z,7.32
2023-05-14T02:32:03.634Z,7.97
2023-05-14T02:34:30.462Z,8.57
2023-05-14T02:36:59.483Z,8.55
2023-05-14T02:39:25.994Z,7.30
2023-05-14T02:41:52.765Z,7.53
2023-05-14T02:44:19.537Z,7.80
2023-05-14T02:46:46.683Z,8.10
2023-05-14T02:49:13.405Z,8.15
2023-05-14T02:51:40.133Z,7.70
2023-05-14T02:54:08.682Z,7.20
2023-05-14T02:56:35.193Z,7.95
2023-05-14T02:59:01.703Z,8.43
2023-05-14T03:01:28.781Z,7.82
2023-05-14T03:03:56.019Z,7.50
2023-05-14T03:06:22.557Z,7.78
2023-05-14T03:08:50.617Z,7.72
2023-05-14T03:11:18.185Z,7.43
2023-05-14T03:13:44.706Z,7.82
2023-05-14T03:16:13.184Z,7.28
2023-05-14T03:18:39.751Z,8.10
2023-05-14T03:21:06.788Z,8.55
2023-05-14T03:23:35.139Z,7.43
2023-05-14T03:26:02.433Z,8.27
2023-05-14T03:28:29.027Z,8.20
2023-05-14T03:30:55.939Z,7.50
2023-05-14T03:33:22.867Z,8.45
2023-05-14T03:35:49.410Z,8.63
2023-05-14T03:38:17.978Z,7.45
2023-05-14T03:40:45.394Z,7.35
2023-05-14T03:43:11.954Z,7.40
2023-05-14T03:45:38.884Z,8.43
2023-05-14T03:48:05.947Z,7.53
2023-05-14T03:50:32.783Z,7.25
2023-05-14T03:52:59.567Z,7.20
2023-05-14T03:55:28.563Z,7.70
2023-05-14T03:57:55.368Z,7.55
2023-05-14T04:00:22.098Z,8.00
2023-05-14T04:02:48.885Z,7.68
2023-05-14T04:05:15.829Z,8.38
2023-05-14T04:07:43.043Z,8.00
2023-05-14T04:10:09.796Z,7.22
2023-05-14T04:12:36.249Z,7.53
2023-05-14T04:15:02.847Z,7.93
2023-05-14T04:17:29.460Z,7.22
2023-05-14T04:19:55.996Z,7.47
2023-05-14T04:22:22.487Z,7.50
2023-05-14T04:24:49.304Z,7.93
2023-05-14T04:27:21.555Z,7.40
2023-05-14T04:29:50.530Z,7.75
2023-05-14T04:32:18.321Z,7.45
2023-05-14T04:34:45.434Z,7.43
2023-05-14T04:37:12.289Z,7.38
2023-05-14T04:39:38.855Z,7.53
2023-05-14T04:42:07.089Z,7.50
2023-05-14T04:44:37.681Z,7.25
2023-05-14T04:47:04.561Z,7.30
2023-05-14T04:49:31.111Z,7.65
2023-05-14T04:51:58.150Z,7.88
2023-05-14T04:54:24.951Z,7.78
2023-05-14T04:56:53.176Z,7.60
2023-05-14T04:59:20.000Z,6.47
2023-05-14T05:01:47.446Z,7.10
2023-05-14T05:04:14.236Z,7.88
2023-05-14T05:06:40.734Z,8.25
2023-05-14T05:09:08.647Z,7.88
2023-05-14T05:11:35.260Z,7.25
2023-05-14T05:14:02.002Z,8.07
2023-05-14T05:16:28.586Z,7.60
2023-05-14T05:18:55.506Z,7.40
2023-05-14T05:21:22.319Z,7.22
2023-05-14T05:23:50.319Z,7.18
2023-05-14T05:26:16.811Z,6.80
2023-05-14T05:28:45.834Z,6.70
2023-05-14T05:31:12.959Z,7.28
2023-05-14T05:33:39.534Z,7.15
2023-05-14T05:36:06.375Z,6.97
2023-05-14T05:38:32.827Z,7.38
2023-05-14T05:40:59.424Z,7.03
2023-05-14T05:43:25.960Z,7.30
2023-05-14T05:45:52.697Z,7.05
2023-05-14T05:48:19.215Z,6.85
2023-05-14T05:50:47.564Z,7.32
2023-05-14T05:53:14.069Z,7.50
2023-05-14T05:55:41.179Z,6.43
2023-05-14T05:58:08.089Z,6.03
2023-05-14T06:00:35.167Z,5.97
2023-05-14T06:03:01.703Z,6.30
2023-05-14T06:05:28.527Z,5.97
2023-05-14T06:07:55.351Z,6.05
2023-05-14T06:10:22.208Z,5.85
2023-05-14T06:12:49.389Z,5.82
2023-05-14T06:15:16.495Z,6.00
2023-05-14T06:17:43.344Z,6.60
2023-05-14T06:20:10.072Z,5.65
2023-05-14T06:22:38.588Z,6.10
2023-05-14T06:25:05.387Z,5.55
2023-05-14T06:27:31.902Z,6.10
2023-05-14T06:29:58.385Z,5.30
2023-05-14T06:32:24.963Z,5.40
2023-05-14T06:34:51.543Z,5.35
2023-05-14T06:37:18.098Z,4.80
2023-05-14T06:39:49.956Z,5.57
2023-05-14T06:42:17.371Z,5.43
2023-05-14T06:44:44.515Z,5.30
2023-05-14T06:47:11.313Z,5.38
2023-05-14T06:49:38.615Z,5.88
2023-05-14T06:52:05.518Z,5.10
2023-05-14T06:54:32.343Z,5.20
2023-05-14T06:56:59.174Z,5.65
2023-05-14T06:59:26.074Z,5.10
2023-05-14T07:01:52.631Z,5.00
2023-05-14T07:04:19.270Z,5.70
2023-05-14T07:06:46.320Z,5.40
2023-05-14T07:09:13.393Z,5.20
2023-05-14T07:11:39.912Z,5.35
2023-05-14T07:14:06.378Z,5.00
2023-05-14T07:16:32.950Z,5.13
2023-05-14T07:18:59.553Z,4.95
2023-05-14T07:21:26.422Z,5.30
2023-05-14T07:23:52.906Z,5.50
2023-05-14T07:26:19.423Z,4.90
2023-05-14T07:28:46.377Z,4.90
2023-05-14T07:31:13.774Z,4.68
2023-05-14T07:33:40.673Z,4.97
2023-05-14T07:36:07.671Z,5.18
2023-05-14T07:38:36.371Z,5.03
2023-05-14T07:41:03.257Z,4.65
2023-05-14T07:43:29.725Z,5.50
2023-05-14T07:45:56.592Z,5.03
2023-05-14T07:48:23.662Z,5.30
2023-05-14T07:50:50.312Z,5.57
2023-05-14T07:53:17.055Z,4.90
2023-05-14T07:55:45.037Z,5.32
2023-05-14T07:58:11.656Z,4.70
2023-05-14T08:00:38.368Z,4.70
2023-05-14T08:03:06.893Z,5.15
2023-05-14T08:05:33.525Z,5.10
2023-05-14T08:08:00.009Z,5.38
2023-05-14T08:10:28.694Z,4.65
2023-05-14T08:12:55.716Z,4.53
2023-05-14T08:15:24.016Z,4.65
2023-05-14T08:17:51.740Z,4.45
2023-05-14T08:20:19.475Z,5.55
2023-05-14T08:22:46.221Z,4.60
2023-05-14T08:25:12.873Z,4.53
2023-05-14T08:27:42.061Z,4.72
2023-05-14T08:30:08.818Z,4.93
2023-05-14T08:32:35.824Z,4.60
2023-05-14T08:35:02.405Z,4.28
2023-05-14T08:37:32.472Z,4.65
2023-05-14T08:39:59.103Z,4.53
2023-05-14T08:42:27.043Z,4.97
2023-05-14T08:45:00.777Z,4.05
2023-05-14T08:47:31.197Z,4.13
2023-05-14T08:50:07.688Z,4.38
2023-05-14T08:52:35.228Z,3.97
2023-05-14T08:55:05.627Z,3.90
2023-05-14T08:57:36.067Z,4.80
2023-05-14T09:00:08.971Z,4.25
2023-05-14T09:02:37.405Z,4.40
2023-05-14T09:05:04.492Z,4.90
2023-05-14T09:07:31.136Z,4.13
2023-05-14T09:09:58.452Z,3.80
2023-05-14T09:12:26.556Z,4.78
2023-05-14T09:14:56.146Z,4.60
2023-05-14T09:17:28.563Z,4.30
2023-05-14T09:19:56.220Z,4.28
2023-05-14T09:22:23.108Z,4.60
2023-05-14T09:25:09.757Z,4.20
2023-05-14T09:27:36.781Z,4.35
2023-05-14T09:30:06.649Z,3.80
2023-05-14T09:32:38.161Z,3.38
2023-05-14T09:35:17.645Z,3.60
2023-05-14T09:37:46.708Z,3.60
2023-05-14T09:40:14.065Z,3.72
2023-05-14T09:42:41.336Z,3.58
2023-05-14T09:45:12.133Z,3.30
2023-05-14T09:47:39.482Z,3.05
2023-05-14T09:50:06.881Z,3.67
2023-05-14T09:52:34.210Z,3.20
2023-05-14T09:55:02.292Z,3.67
2023-05-14T09:57:29.060Z,3.38
2023-05-14T10:00:00.278Z,4.18
2023-05-14T10:02:34.555Z,3.42
2023-05-14T10:05:05.066Z,2.83
2023-05-14T10:10:11.706Z,3.40
2023-05-14T10:15:16.706Z,3.25
2023-05-14T10:17:49.400Z,3.15
2023-05-14T10:20:17.713Z,3.13
2023-05-14T10:22:46.310Z,3.28
2023-05-14T10:25:12.849Z,3.17
2023-05-14T10:27:40.834Z,3.10
2023-05-14T10:30:12.975Z,3.28
2023-05-14T10:32:41.830Z,3.20
2023-05-14T10:35:26.018Z,3.38
2023-05-14T10:37:52.594Z,3.75
2023-05-14T10:40:23.688Z,4.50
2023-05-14T10:42:54.674Z,3.60
2023-05-14T10:45:22.933Z,3.58
2023-05-14T10:47:49.558Z,3.22
2023-05-14T10:50:17.872Z,3.80
2023-05-14T10:52:45.864Z,3.67
2023-05-14T10:55:19.351Z,3.75
2023-05-14T10:57:46.880Z,3.25
2023-05-14T11:00:14.980Z,3.70
2023-05-14T11:02:43.514Z,3.80
2023-05-14T11:05:14.386Z,3.38
2023-05-14T11:07:50.614Z,3.63
2023-05-14T11:10:20.061Z,3.67
2023-05-14T11:12:52.732Z,3.25
2023-05-14T11:15:26.278Z,3.53
2023-05-14T11:17:53.906Z,3.90
2023-05-14T11:20:21.107Z,3.90
2023-05-14T11:22:49.356Z,3.50
2023-05-14T11:25:18.579Z,3.90
2023-05-14T11:27:46.558Z,3.35
2023-05-14T11:30:15.105Z,3.80
2023-05-14T11:32:43.867Z,3.78
2023-05-14T11:35:10.486Z,3.58
2023-05-14T11:37:36.950Z,3.83
2023-05-14T11:40:10.317Z,3.50
2023-05-14T11:42:37.701Z,3.70
2023-05-14T11:45:05.220Z,4.00
2023-05-14T11:47:31.930Z,3.42
2023-05-14T11:50:01.299Z,3.55
2023-05-14T11:52:27.878Z,3.85
2023-05-14T11:54:54.348Z,3.95
2023-05-14T11:57:21.987Z,4.00
2023-05-14T11:59:49.649Z,3.45
2023-05-14T12:02:18.743Z,3.60
2023-05-14T12:04:50.182Z,3.50
2023-05-14T12:07:17.003Z,3.78
2023-05-14T12:09:51.620Z,3.88
2023-05-14T12:12:22.010Z,3.92
2023-05-14T12:14:52.557Z,3.85
2023-05-14T12:17:22.956Z,3.65
2023-05-14T12:19:52.037Z,3.70
2023-05-14T12:22:24.108Z,3.83
2023-05-14T12:24:58.661Z,4.32
2023-05-14T12:27:29.941Z,3.72
2023-05-14T12:30:13.057Z,4.15
2023-05-14T12:32:47.078Z,3.60
2023-05-14T12:35:13.871Z,4.13
2023-05-14T12:37:42.906Z,3.58
2023-05-14T12:40:09.882Z,4.00
2023-05-14T12:42:36.492Z,3.92
2023-05-14T12:45:06.051Z,3.92
2023-05-14T12:47:34.103Z,3.85
2023-05-14T12:50:02.323Z,3.83
2023-05-14T12:55:02.648Z,4.28
2023-05-14T12:57:30.223Z,3.40
2023-05-14T12:59:57.420Z,4.00
2023-05-14T13:02:24.230Z,3.63
2023-05-14T13:04:50.730Z,4.30
2023-05-14T13:07:17.560Z,4.50
2023-05-14T13:09:44.238Z,3.95
2023-05-14T13:12:11.187Z,3.60
2023-05-14T13:14:37.933Z,3.90
2023-05-14T13:17:05.223Z,3.70
2023-05-14T13:19:31.963Z,4.03
2023-05-14T13:21:58.482Z,3.90
2023-05-14T13:24:25.332Z,3.90
2023-05-14T13:26:51.888Z,3.72
2023-05-14T13:29:19.867Z,3.75
2023-05-14T13:31:46.337Z,3.88
2023-05-14T13:34:13.226Z,3.72
2023-05-14T13:36:41.469Z,3.55
2023-05-14T13:39:08.009Z,4.00
2023-05-14T13:41:37.851Z,3.55
2023-05-14T13:44:04.736Z,3.22
2023-05-14T13:46:31.258Z,3.70
2023-05-14T13:48:58.406Z,3.42
2023-05-14T13:51:24.925Z,3.65
2023-05-14T13:53:51.458Z,3.78
2023-05-14T13:56:18.226Z,4.10
2023-05-14T13:58:44.789Z,3.17
2023-05-14T14:01:11.592Z,3.20
2023-05-14T14:03:38.139Z,3.35
2023-05-14T14:06:04.669Z,3.60
2023-05-14T14:08:31.688Z,3.53
2023-05-14T14:10:59.560Z,3.30
2023-05-14T14:13:26.188Z,3.85
2023-05-14T14:15:55.864Z,3.40
2023-05-14T14:18:22.460Z,3.45
2023-05-14T14:20:49.068Z,3.60
2023-05-14T14:23:16.019Z,4.03
2023-05-14T14:25:42.564Z,3.65
2023-05-14T14:28:09.139Z,3.60
2023-05-14T14:30:35.697Z,3.05
2023-05-14T14:33:02.322Z,3.55
2023-05-14T14:35:28.948Z,3.50
2023-05-14T14:37:56.609Z,3.60
2023-05-14T14:40:24.072Z,3.22
2023-05-14T14:42:50.952Z,3.70
2023-05-14T14:45:21.776Z,3.55
2023-05-14T14:47:49.616Z,3.65
2023-05-14T14:50:17.926Z,3.33
2023-05-14T14:52:46.236Z,3.45
2023-05-14T14:55:12.904Z,3.25
2023-05-14T14:57:39.452Z,3.60
2023-05-14T15:00:07.679Z,3.58
2023-05-14T15:02:38.524Z,3.60
2023-05-14T15:05:06.409Z,3.80
2023-05-14T15:07:36.387Z,4.07
2023-05-14T15:10:02.879Z,3.70
2023-05-14T15:12:30.629Z,3.60
2023-05-14T15:14:57.207Z,3.55
2023-05-14T15:17:29.405Z,4.35
2023-05-14T15:19:58.687Z,4.35
2023-05-14T15:22:25.169Z,3.80
2023-05-14T15:24:52.372Z,3.35
2023-05-14T15:27:18.905Z,3.42
2023-05-14T15:29:45.714Z,3.60
2023-05-14T15:32:12.226Z,3.97
2023-05-14T15:34:39.178Z,3.92
2023-05-14T15:37:07.133Z,3.70
2023-05-14T15:39:33.610Z,3.83
2023-05-14T15:42:00.250Z,3.60
2023-05-14T15:44:26.770Z,3.70
2023-05-14T15:46:53.601Z,4.05
2023-05-14T15:49:20.192Z,3.58
2023-05-14T15:51:47.097Z,4.05
2023-05-14T15:54:13.702Z,3.92
2023-05-14T15:56:40.334Z,3.75
2023-05-14T15:59:06.867Z,3.70
2023-05-14T16:01:33.685Z,3.58
2023-05-14T16:04:00.251Z,4.18
2023-05-14T16:06:28.391Z,3.50
2023-05-14T16:08:57.204Z,3.53
2023-05-14T16:11:23.753Z,3.80
2023-05-14T16:13:53.986Z,3.75
2023-05-14T16:16:22.892Z,3.92
2023-05-14T16:18:52.141Z,3.63
2023-05-14T16:21:18.871Z,3.75
2023-05-14T16:23:45.582Z,3.80
2023-05-14T16:26:12.123Z,3.80
2023-05-14T16:28:44.005Z,3.72
2023-05-14T16:31:10.846Z,3.40
2023-05-14T16:33:37.476Z,3.28
2023-05-14T16:36:04.050Z,3.50
2023-05-14T16:38:30.588Z,3.83
2023-05-14T16:41:00.290Z,3.50
2023-05-14T16:43:27.099Z,3.78
2023-05-14T16:45:53.592Z,3.80
2023-05-14T16:48:20.316Z,3.60
2023-05-14T16:50:46.849Z,3.65
2023-05-14T16:53:13.374Z,3.83
2023-05-14T16:55:39.849Z,3.97
2023-05-14T16:58:06.461Z,3.85
2023-05-14T17:00:33.194Z,4.00
2023-05-14T17:03:00.213Z,4.05
2023-05-14T17:05:28.095Z,3.90
2023-05-14T17:07:56.729Z,3.97
2023-05-14T17:10:25.840Z,3.97
2023-05-14T17:12:53.076Z,4.10
2023-05-14T17:15:19.503Z,3.92
2023-05-14T17:17:46.154Z,3.65
2023-05-14T17:20:14.127Z,3.63
2023-05-14T17:22:42.893Z,3.83
2023-05-14T17:25:09.742Z,4.22
2023-05-14T17:27:36.489Z,3.50
2023-05-14T17:30:03.794Z,4.10
2023-05-14T17:32:31.191Z,4.03
2023-05-14T17:34:57.895Z,4.03
2023-05-14T17:37:25.604Z,4.05
2023-05-14T17:39:52.753Z,4.25
2023-05-14T17:42:19.257Z,4.55
2023-05-14T17:44:46.507Z,4.18
2023-05-14T17:47:13.753Z,4.22
2023-05-14T17:49:40.234Z,4.50
2023-05-14T17:52:07.475Z,3.55
2023-05-14T17:54:34.203Z,3.67
2023-05-14T17:57:00.774Z,3.92
2023-05-14T17:59:32.471Z,3.88
2023-05-14T18:01:59.195Z,4.00
2023-05-14T18:04:25.980Z,4.00
2023-05-14T18:06:57.582Z,3.85
2023-05-14T18:09:24.082Z,3.95
2023-05-14T18:11:50.933Z,3.92
2023-05-14T18:14:18.769Z,4.10
2023-05-14T18:16:45.632Z,4.10
2023-05-14T18:19:13.928Z,3.90
2023-05-14T18:21:43.032Z,5.22
2023-05-14T18:24:09.740Z,4.90
2023-05-14T18:26:36.249Z,4.25
2023-05-14T18:29:02.782Z,4.10
2023-05-14T18:31:29.504Z,4.30
2023-05-14T18:33:56.324Z,4.32
2023-05-14T18:36:23.940Z,4.75
2023-05-14T18:38:50.709Z,4.20
2023-05-14T18:41:17.209Z,4.63
2023-05-14T18:43:43.957Z,4.00
2023-05-14T18:46:14.695Z,4.38
2023-05-14T18:48:42.591Z,4.45
2023-05-14T18:51:11.302Z,4.90
2023-05-14T18:53:38.814Z,4.55
2023-05-14T18:56:05.237Z,4.22
2023-05-14T18:58:31.857Z,4.72
2023-05-14T19:00:59.105Z,4.63
2023-05-14T19:03:26.045Z,5.22
2023-05-14T19:05:53.391Z,5.50
2023-05-14T19:08:20.065Z,4.45
2023-05-14T19:10:47.673Z,4.35
2023-05-14T19:13:17.273Z,5.10
2023-05-14T19:15:44.552Z,4.57
2023-05-14T19:18:13.325Z,4.60
2023-05-14T19:20:40.092Z,4.38
2023-05-14T19:23:06.853Z,5.50
2023-05-14T19:25:34.012Z,4.90
2023-05-14T19:28:02.240Z,4.90
2023-05-14T19:30:29.459Z,4.82
2023-05-14T19:32:57.312Z,6.20
2023-05-14T19:35:25.233Z,5.07
2023-05-14T19:37:51.995Z,4.70
2023-05-14T19:40:18.821Z,5.30
2023-05-14T19:42:45.284Z,4.30
2023-05-14T19:45:12.022Z,4.80
2023-05-14T19:47:38.914Z,5.30
2023-05-14T19:50:05.858Z,5.45
2023-05-14T19:52:32.639Z,5.22
2023-05-14T19:54:59.325Z,5.00
2023-05-14T19:57:26.693Z,5.40
2023-05-14T19:59:53.290Z,4.72
2023-05-14T20:02:21.832Z,5.38
2023-05-14T20:04:48.416Z,5.20
2023-05-14T20:07:15.921Z,4.95
2023-05-14T20:09:44.066Z,5.18
2023-05-14T20:12:12.858Z,5.57
2023-05-14T20:14:44.630Z,4.93
2023-05-14T20:17:11.209Z,5.00
2023-05-14T20:19:39.043Z,5.03
2023-05-14T20:22:06.708Z,4.68
2023-05-14T20:24:33.354Z,5.45
2023-05-14T20:27:00.015Z,5.72
2023-05-14T20:29:26.976Z,5.47
2023-05-14T20:31:58.976Z,5.43
2023-05-14T20:34:25.917Z,5.68
2023-05-14T20:36:52.444Z,5.20
2023-05-14T20:39:19.629Z,5.90
2023-05-14T20:41:46.594Z,5.68
2023-05-14T20:44:13.196Z,5.78
2023-05-14T20:46:39.861Z,6.07
2023-05-14T20:49:06.843Z,5.60
2023-05-14T20:51:33.451Z,5.38
2023-05-14T20:54:00.090Z,5.82
2023-05-14T20:56:26.639Z,5.90
2023-05-14T20:58:53.128Z,5.82
2023-05-14T21:01:19.915Z,6.05
2023-05-14T21:03:46.796Z,6.45
2023-05-14T21:06:14.189Z,6.00
2023-05-14T21:08:40.781Z,5.60
2023-05-14T21:11:07.758Z,6.10
2023-05-14T21:13:34.472Z,6.28
2023-05-14T21:16:02.214Z,7.30
2023-05-14T21:18:30.864Z,6.95
2023-05-14T21:20:57.658Z,7.05
2023-05-14T21:23:24.212Z,7.97
2023-05-14T21:25:51.379Z,6.43
2023-05-14T21:28:17.971Z,7.20
2023-05-14T21:30:44.821Z,7.43
2023-05-14T21:33:11.754Z,8.85
2023-05-14T21:35:38.310Z,7.25
2023-05-14T21:38:07.374Z,6.82
2023-05-14T21:40:33.882Z,6.75
2023-05-14T21:43:00.911Z,7.30
2023-05-14T21:45:27.655Z,7.50
2023-05-14T21:47:54.833Z,7.38
2023-05-14T21:50:21.690Z,7.75
2023-05-14T21:52:48.364Z,7.38
2023-05-14T21:55:14.874Z,7.22
2023-05-14T21:57:41.625Z,7.50
2023-05-14T22:00:12.588Z,6.90
2023-05-14T22:02:39.782Z,6.97
2023-05-14T22:05:06.670Z,7.75
2023-05-14T22:07:33.160Z,7.05
2023-05-14T22:09:59.900Z,7.63
2023-05-14T22:12:26.840Z,6.70
2023-05-14T22:14:53.447Z,8.07
2023-05-14T22:17:20.202Z,7.95
2023-05-14T22:19:46.736Z,6.68
2023-05-14T22:22:13.379Z,7.55
2023-05-14T22:24:39.933Z,7.20
2023-05-14T22:27:06.676Z,6.63
2023-05-14T22:29:33.269Z,7.50
2023-05-14T22:31:59.808Z,7.40
2023-05-14T22:34:26.372Z,7.30
2023-05-14T22:36:52.987Z,7.30
2023-05-14T22:39:19.569Z,7.88
2023-05-14T22:41:46.153Z,7.53
2023-05-14T22:44:12.929Z,7.45
2023-05-14T22:46:40.080Z,7.72
2023-05-14T22:49:06.588Z,7.82
2023-05-14T22:51:33.170Z,7.80
2023-05-14T22:53:59.783Z,7.72
2023-05-14T22:56:27.848Z,8.35
2023-05-14T22:58:54.628Z,8.13
2023-05-14T23:01:21.115Z,7.65
2023-05-14T23:03:47.790Z,7.53
2023-05-14T23:06:14.769Z,7.40
2023-05-14T23:08:42.459Z,7.20
2023-05-14T23:11:08.929Z,8.05
2023-05-14T23:13:35.550Z,8.55
2023-05-14T23:16:02.111Z,7.50
2023-05-14T23:18:32.634Z,8.70
2023-05-14T23:20:59.232Z,8.55
2023-05-14T23:23:25.820Z,7.78
2023-05-14T23:25:52.408Z,7.75
2023-05-14T23:28:19.373Z,7.50
2023-05-14T23:30:45.888Z,8.38
2023-05-14T23:33:12.655Z,8.35
2023-05-14T23:35:39.353Z,8.50
2023-05-14T23:38:06.350Z,8.85
2023-05-14T23:40:33.281Z,8.90
2023-05-14T23:43:00.556Z,8.30
2023-05-14T23:45:27.657Z,9.13
2023-05-14T23:47:55.176Z,7.95
2023-05-14T23:50:21.948Z,7.07
2023-05-14T23:52:48.532Z,8.45
2023-05-14T23:55:16.287Z,8.35
2023-05-14T23:57:42.763Z,8.85
